createdAt,value
2022-12-09T00:00:10.592Z,100544.78
2022-12-09T00:02:38.759Z,100554.25
2022-12-09T00:05:06.691Z,100548.94
2022-12-09T00:07:37.472Z,100556.88
2022-12-09T00:10:05.483Z,100560.34
2022-12-09T00:12:33.352Z,100551.84
2022-12-09T00:15:00.787Z,100559.97
2022-12-09T00:17:28.231Z,100557.28
2022-12-09T00:19:55.604Z,100566.56
2022-12-09T00:22:22.904Z,100564.41
2022-12-09T00:24:50.341Z,100564.94
2022-12-09T00:27:17.637Z,100566.38
2022-12-09T00:29:45.071Z,100572.00
2022-12-09T00:32:12.698Z,100574.78
2022-12-09T00:35:05.563Z,100573.31
2022-12-09T00:37:35.496Z,100569.59
2022-12-09T00:40:28.750Z,100575.88
2022-12-09T00:42:56.253Z,100580.81
2022-12-09T00:45:27.902Z,100583.44
2022-12-09T00:47:57.028Z,100580.59
2022-12-09T00:50:24.386Z,100583.56
2022-12-09T00:52:51.726Z,100587.94
2022-12-09T00:55:19.382Z,100591.59
2022-12-09T00:57:47.373Z,100599.97
2022-12-09T01:00:14.917Z,100597.63
2022-12-09T01:02:42.370Z,100594.34
2022-12-09T01:05:12.649Z,100595.53
2022-12-09T01:07:40.358Z,100593.84
2022-12-09T01:10:08.181Z,100594.84
2022-12-09T01:12:35.766Z,100591.28
2022-12-09T01:15:06.315Z,100590.94
2022-12-09T01:17:34.089Z,100602.13
2022-12-09T01:20:04.920Z,100597.56
2022-12-09T01:22:32.688Z,100594.13
2022-12-09T01:25:00.205Z,100599.16
2022-12-09T01:27:30.211Z,100604.31
2022-12-09T01:29:57.663Z,100609.44
2022-12-09T01:32:25.048Z,100606.25
2022-12-09T01:34:52.587Z,100606.25
2022-12-09T01:37:21.148Z,100607.09
2022-12-09T01:39:48.435Z,100606.00
2022-12-09T01:42:23.380Z,100605.63
2022-12-09T01:45:09.462Z,100600.00
2022-12-09T01:47:36.975Z,100617.91
2022-12-09T01:50:04.914Z,100607.75
2022-12-09T01:52:33.336Z,100607.88
2022-12-09T01:55:01.451Z,100619.22
2022-12-09T01:57:29.624Z,100609.50
2022-12-09T01:59:57.101Z,100613.41
2022-12-09T02:02:28.679Z,100614.25
2022-12-09T02:04:56.706Z,100616.13
2022-12-09T02:07:24.544Z,100618.31
2022-12-09T02:09:53.440Z,100617.25
2022-12-09T02:12:49.721Z,100617.63
2022-12-09T02:15:23.162Z,100618.06
2022-12-09T02:17:50.803Z,100609.28
2022-12-09T02:20:31.140Z,100615.31
2022-12-09T02:23:06.209Z,100622.00
2022-12-09T02:25:45.919Z,100623.06
2022-12-09T02:28:13.457Z,100620.09
2022-12-09T02:30:49.076Z,100624.06
2022-12-09T02:33:25.793Z,100627.34
2022-12-09T02:36:08.160Z,100627.81
2022-12-09T02:38:39.844Z,100635.56
2022-12-09T02:41:19.745Z,100631.47
2022-12-09T02:43:52.046Z,100632.97
2022-12-09T02:46:25.828Z,100632.31
2022-12-09T02:48:56.712Z,100636.56
2022-12-09T02:51:26.388Z,100633.50
2022-12-09T02:53:57.318Z,100638.13
2022-12-09T02:56:25.384Z,100638.59
2022-12-09T02:58:52.948Z,100642.66
2022-12-09T03:01:33.070Z,100646.94
2022-12-09T03:04:01.320Z,100647.34
2022-12-09T03:06:31.429Z,100649.13
2022-12-09T03:09:02.697Z,100646.53
2022-12-09T03:11:31.241Z,100648.88
2022-12-09T03:14:09.961Z,100654.06
2022-12-09T03:16:54.950Z,100654.06
2022-12-09T03:19:36.427Z,100662.28
2022-12-09T03:22:07.684Z,100648.91
2022-12-09T03:24:38.989Z,100664.84
2022-12-09T03:27:09.180Z,100660.78
2022-12-09T03:29:38.826Z,100659.94
2022-12-09T03:32:08.330Z,100670.69
2022-12-09T03:34:39.015Z,100667.44
2022-12-09T03:37:08.251Z,100672.41
2022-12-09T03:39:37.581Z,100669.25
2022-12-09T03:42:09.846Z,100663.53
2022-12-09T03:44:42.068Z,100669.13
2022-12-09T03:47:10.600Z,100670.13
2022-12-09T03:49:39.621Z,100668.50
2022-12-09T03:52:07.125Z,100679.28
2022-12-09T03:54:57.669Z,100673.66
2022-12-09T03:57:25.994Z,100670.44
2022-12-09T03:59:56.643Z,100671.06
2022-12-09T04:02:24.669Z,100672.16
2022-12-09T04:04:52.436Z,100671.50
2022-12-09T04:07:20.080Z,100669.28
2022-12-09T04:09:47.760Z,100680.38
2022-12-09T04:12:15.886Z,100685.94
2022-12-09T04:14:43.261Z,100672.16
2022-12-09T04:17:12.029Z,100676.47
2022-12-09T04:19:39.512Z,100675.09
2022-12-09T04:22:07.211Z,100679.06
2022-12-09T04:24:34.824Z,100684.00
2022-12-09T04:27:02.293Z,100690.94
2022-12-09T04:29:29.660Z,100694.38
2022-12-09T04:31:57.159Z,100697.38
2022-12-09T04:34:24.550Z,100693.31
2022-12-09T04:36:52.210Z,100698.91
2022-12-09T04:39:19.759Z,100701.47
2022-12-09T04:41:47.002Z,100703.28
2022-12-09T04:44:14.239Z,100708.16
2022-12-09T04:46:42.077Z,100707.81
2022-12-09T04:49:09.532Z,100715.47
2022-12-09T04:51:39.946Z,100711.19
2022-12-09T04:54:11.740Z,100715.69
2022-12-09T04:56:39.116Z,100717.53
2022-12-09T04:59:06.756Z,100715.72
2022-12-09T05:01:34.649Z,100724.19
2022-12-09T05:04:02.408Z,100725.84
2022-12-09T05:06:30.348Z,100730.03
2022-12-09T05:08:58.035Z,100725.94
2022-12-09T05:11:25.971Z,100732.50
2022-12-09T05:13:54.026Z,100736.72
2022-12-09T05:16:21.760Z,100736.16
2022-12-09T05:18:50.014Z,100747.38
2022-12-09T05:21:20.165Z,100748.22
2022-12-09T05:23:48.698Z,100751.69
2022-12-09T05:26:17.951Z,100746.28
2022-12-09T05:28:46.240Z,100742.19
2022-12-09T05:31:15.642Z,100751.66
2022-12-09T05:33:44.049Z,100756.88
2022-12-09T05:36:12.516Z,100755.13
2022-12-09T05:38:40.446Z,100750.59
2022-12-09T05:41:07.936Z,100756.44
2022-12-09T05:43:37.250Z,100763.44
2022-12-09T05:46:06.495Z,100751.25
2022-12-09T05:48:34.574Z,100757.72
2022-12-09T05:51:04.789Z,100758.78
2022-12-09T05:53:32.814Z,100769.78
2022-12-09T05:56:00.801Z,100769.56
2022-12-09T05:58:28.852Z,100762.03
2022-12-09T06:00:58.038Z,100767.34
2022-12-09T06:03:25.736Z,100773.47
2022-12-09T06:05:53.450Z,100776.03
2022-12-09T06:08:21.213Z,100779.25
2022-12-09T06:10:48.864Z,100787.00
2022-12-09T06:13:16.512Z,100780.78
2022-12-09T06:15:44.034Z,100795.00
2022-12-09T06:18:11.515Z,100792.16
2022-12-09T06:20:42.404Z,100788.75
2022-12-09T06:23:10.286Z,100794.09
2022-12-09T06:25:37.718Z,100803.31
2022-12-09T06:28:05.474Z,100805.47
2022-12-09T06:30:33.192Z,100805.03
2022-12-09T06:33:00.944Z,100809.69
2022-12-09T06:35:29.302Z,100807.44
2022-12-09T06:37:56.969Z,100811.72
2022-12-09T06:40:24.821Z,100818.91
2022-12-09T06:42:52.547Z,100810.25
2022-12-09T06:45:20.073Z,100813.22
2022-12-09T06:47:47.663Z,100820.09
2022-12-09T06:50:15.582Z,100814.47
2022-12-09T06:52:43.589Z,100820.56
2022-12-09T06:55:11.293Z,100812.03
2022-12-09T06:57:39.008Z,100821.16
2022-12-09T07:00:07.144Z,100824.00
2022-12-09T07:02:36.774Z,100819.47
2022-12-09T07:05:05.739Z,100832.97
2022-12-09T07:07:34.050Z,100827.91
2022-12-09T07:10:08.774Z,100837.59
2022-12-09T07:12:36.658Z,100837.13
2022-12-09T07:15:04.173Z,100843.28
2022-12-09T07:17:31.919Z,100845.31
2022-12-09T07:20:06.385Z,100849.84
2022-12-09T07:22:34.337Z,100838.41
2022-12-09T07:25:02.171Z,100843.28
2022-12-09T07:27:29.820Z,100841.66
2022-12-09T07:29:58.433Z,100843.69
2022-12-09T07:32:26.589Z,100842.94
2022-12-09T07:34:54.110Z,100844.66
2022-12-09T07:37:21.928Z,100834.56
2022-12-09T07:39:49.622Z,100835.03
2022-12-09T07:42:16.925Z,100830.69
2022-12-09T07:44:52.822Z,100837.97
2022-12-09T07:47:20.548Z,100839.75
2022-12-09T07:49:48.410Z,100846.53
2022-12-09T07:52:16.326Z,100841.53
2022-12-09T07:54:43.699Z,100835.81
2022-12-09T07:57:11.390Z,100844.09
2022-12-09T07:59:39.109Z,100840.50
2022-12-09T08:02:07.064Z,100855.25
2022-12-09T08:04:36.385Z,100861.63
2022-12-09T08:07:04.680Z,100856.25
2022-12-09T08:09:32.341Z,100866.81
2022-12-09T08:12:00.175Z,100870.63
2022-12-09T08:14:27.728Z,100866.03
2022-12-09T08:16:55.595Z,100870.44
2022-12-09T08:19:23.149Z,100869.44
2022-12-09T08:21:54.575Z,100872.78
2022-12-09T08:24:22.818Z,100871.94
2022-12-09T08:26:51.384Z,100881.88
2022-12-09T08:29:19.318Z,100867.59
2022-12-09T08:31:47.300Z,100880.88
2022-12-09T08:34:15.353Z,100877.06
2022-12-09T08:36:43.418Z,100886.66
2022-12-09T08:39:12.429Z,100880.25
2022-12-09T08:41:40.724Z,100878.25
2022-12-09T08:44:12.933Z,100876.81
2022-12-09T08:46:42.059Z,100883.53
2022-12-09T08:49:10.192Z,100882.88
2022-12-09T08:51:38.143Z,100884.25
2022-12-09T08:54:06.794Z,100880.22
2022-12-09T08:56:34.469Z,100886.06
2022-12-09T08:59:02.328Z,100888.31
2022-12-09T09:01:32.786Z,100890.56
2022-12-09T09:04:02.645Z,100888.25
2022-12-09T09:06:30.417Z,100881.38
2022-12-09T09:08:58.494Z,100886.63
2022-12-09T09:11:26.971Z,100880.41
2022-12-09T09:13:54.635Z,100886.22
2022-12-09T09:16:23.779Z,100875.41
2022-12-09T09:18:51.822Z,100874.59
2022-12-09T09:21:20.367Z,100874.88
2022-12-09T09:23:48.807Z,100875.53
2022-12-09T09:26:18.544Z,100866.69
2022-12-09T09:28:46.611Z,100865.59
2022-12-09T09:31:15.953Z,100867.78
2022-12-09T09:33:43.702Z,100863.88
2022-12-09T09:36:21.972Z,100858.59
2022-12-09T09:38:50.077Z,100855.00
2022-12-09T09:41:43.743Z,100856.66
2022-12-09T09:44:19.930Z,100852.13
2022-12-09T09:46:49.174Z,100859.44
2022-12-09T09:49:23.675Z,100867.00
2022-12-09T09:51:51.404Z,100870.66
2022-12-09T09:54:18.788Z,100864.81
2022-12-09T09:56:55.149Z,100865.84
2022-12-09T09:59:22.983Z,100865.28
2022-12-09T10:02:10.741Z,100868.69
2022-12-09T10:04:41.453Z,100862.06
2022-12-09T10:07:15.985Z,100873.16
2022-12-09T10:09:49.910Z,100871.84
2022-12-09T10:12:19.218Z,100873.69
2022-12-09T10:14:58.427Z,100880.47
2022-12-09T10:17:26.500Z,100882.00
2022-12-09T10:19:57.041Z,100881.19
2022-12-09T10:22:27.177Z,100875.09
2022-12-09T10:24:59.207Z,100871.03
2022-12-09T10:27:34.201Z,100877.53
2022-12-09T10:30:02.610Z,100870.84
2022-12-09T10:32:31.633Z,100879.59
2022-12-09T10:34:59.527Z,100872.69
2022-12-09T10:37:27.605Z,100870.03
2022-12-09T10:40:10.942Z,100876.03
2022-12-09T10:43:02.121Z,100880.53
2022-12-09T10:45:52.703Z,100877.31
2022-12-09T10:48:21.855Z,100875.84
2022-12-09T10:50:55.419Z,100870.75
2022-12-09T10:53:23.402Z,100876.63
2022-12-09T10:55:52.181Z,100877.25
2022-12-09T10:58:25.625Z,100880.97
2022-12-09T11:01:05.295Z,100874.63
2022-12-09T11:03:33.322Z,100869.34
2022-12-09T11:06:11.712Z,100866.25
2022-12-09T11:08:41.643Z,100868.69
2022-12-09T11:11:09.479Z,100870.63
2022-12-09T11:13:42.678Z,100865.72
2022-12-09T11:16:11.687Z,100869.44
2022-12-09T11:18:46.670Z,100874.97
2022-12-09T11:21:32.617Z,100881.41
2022-12-09T11:24:03.549Z,100875.22
2022-12-09T11:26:33.793Z,100874.53
2022-12-09T11:29:19.467Z,100872.63
2022-12-09T11:31:47.498Z,100867.66
2022-12-09T11:34:37.869Z,100865.13
2022-12-09T11:37:05.585Z,100869.13
2022-12-09T11:39:33.935Z,100877.53
2022-12-09T11:42:18.639Z,100879.44
2022-12-09T11:44:49.458Z,100887.47
2022-12-09T11:47:28.072Z,100879.50
2022-12-09T11:49:57.460Z,100885.25
2022-12-09T11:52:29.469Z,100878.63
2022-12-09T11:54:57.422Z,100881.63
2022-12-09T11:57:30.838Z,100879.06
2022-12-09T12:00:00.142Z,100882.00
2022-12-09T12:02:32.398Z,100887.09
2022-12-09T12:05:02.559Z,100880.28
2022-12-09T12:07:39.034Z,100881.41
2022-12-09T12:10:13.056Z,100878.22
2022-12-09T12:12:40.282Z,100881.81
2022-12-09T12:15:13.969Z,100883.03
2022-12-09T12:17:43.471Z,100893.91
2022-12-09T12:20:12.327Z,100905.63
2022-12-09T12:22:42.648Z,100906.63
2022-12-09T12:25:20.976Z,100909.50
2022-12-09T12:28:07.425Z,100902.81
2022-12-09T12:30:34.812Z,100902.34
2022-12-09T12:35:55.452Z,100910.75
2022-12-09T12:38:28.877Z,100904.53
2022-12-09T12:41:28.793Z,100903.13
2022-12-09T12:44:14.562Z,100908.50
2022-12-09T12:46:47.260Z,100905.03
2022-12-09T12:49:27.448Z,100895.25
2022-12-09T12:52:26.420Z,100896.72
2022-12-09T12:55:12.359Z,100908.13
2022-12-09T12:57:39.664Z,100903.19
2022-12-09T13:00:26.966Z,100915.22
2022-12-09T13:03:14.563Z,100913.44
2022-12-09T13:05:43.851Z,100913.59
2022-12-09T13:08:17.722Z,100912.50
2022-12-09T13:10:50.823Z,100917.69
2022-12-09T13:13:30.240Z,100912.97
2022-12-09T13:16:13.062Z,100918.31
2022-12-09T13:18:40.580Z,100919.94
2022-12-09T13:21:08.459Z,100920.00
2022-12-09T13:23:54.753Z,100922.69
2022-12-09T13:26:41.009Z,100929.94
2022-12-09T13:29:17.401Z,100931.53
2022-12-09T13:32:04.982Z,100930.56
2022-12-09T13:34:40.805Z,100937.19
2022-12-09T13:37:26.730Z,100938.16
2022-12-09T13:39:55.196Z,100928.91
2022-12-09T13:42:46.311Z,100933.22
2022-12-09T13:45:17.033Z,100932.06
2022-12-09T13:47:44.350Z,100935.78
2022-12-09T13:50:25.187Z,100941.06
2022-12-09T13:52:53.559Z,100942.09
2022-12-09T13:55:28.035Z,100947.19
2022-12-09T13:58:15.275Z,100950.88
2022-12-09T14:00:43.827Z,100939.75
2022-12-09T14:03:26.145Z,100948.47
2022-12-09T14:05:54.894Z,100952.56
2022-12-09T14:08:29.077Z,100951.50
2022-12-09T14:10:56.601Z,100943.06
2022-12-09T14:13:31.845Z,100939.88
2022-12-09T14:16:09.830Z,100942.25
2022-12-09T14:18:39.908Z,100950.47
2022-12-09T14:21:19.917Z,100953.69
2022-12-09T14:24:06.281Z,100953.03
2022-12-09T14:26:53.939Z,100942.25
2022-12-09T14:29:39.635Z,100943.28
2022-12-09T14:32:17.892Z,100938.34
2022-12-09T14:34:47.411Z,100942.00
2022-12-09T14:37:20.321Z,100943.09
2022-12-09T14:39:49.582Z,100937.91
2022-12-09T14:42:39.910Z,100943.38
2022-12-09T14:45:27.366Z,100940.75
2022-12-09T14:47:55.101Z,100945.06
2022-12-09T14:50:23.703Z,100946.78
2022-12-09T14:52:51.599Z,100949.81
2022-12-09T14:55:19.576Z,100940.97
2022-12-09T14:57:48.020Z,100932.97
2022-12-09T15:00:29.543Z,100945.47
2022-12-09T15:03:30.723Z,100944.38
2022-12-09T15:05:58.005Z,100938.59
2022-12-09T15:08:33.165Z,100937.06
2022-12-09T15:11:12.083Z,100944.84
2022-12-09T15:13:41.259Z,100947.41
2022-12-09T15:16:13.093Z,100946.94
2022-12-09T15:18:41.750Z,100948.47
2022-12-09T15:21:09.639Z,100956.44
2022-12-09T15:23:36.969Z,100957.97
2022-12-09T15:26:08.732Z,100950.56
2022-12-09T15:28:37.049Z,100955.84
2022-12-09T15:31:05.945Z,100950.22
2022-12-09T15:33:39.805Z,100955.28
2022-12-09T15:36:12.123Z,100940.22
2022-12-09T15:38:46.305Z,100945.06
2022-12-09T15:41:33.199Z,100938.59
2022-12-09T15:44:04.974Z,100944.16
2022-12-09T15:46:33.583Z,100948.47
2022-12-09T15:49:02.053Z,100940.50
2022-12-09T15:51:30.442Z,100950.88
2022-12-09T15:53:59.563Z,100948.41
2022-12-09T15:56:26.775Z,100945.94
2022-12-09T15:58:56.408Z,100949.16
2022-12-09T16:01:25.263Z,100948.00
2022-12-09T16:03:53.829Z,100956.81
2022-12-09T16:06:26.966Z,100950.47
2022-12-09T16:08:54.482Z,100950.88
2022-12-09T16:11:39.998Z,100944.19
2022-12-09T16:14:08.592Z,100948.75
2022-12-09T16:16:48.142Z,100946.63
2022-12-09T16:19:25.718Z,100962.31
2022-12-09T16:21:55.031Z,100963.56
2022-12-09T16:24:22.915Z,100956.25
2022-12-09T16:26:51.551Z,100950.00
2022-12-09T16:29:32.187Z,100954.84
2022-12-09T16:32:25.942Z,100960.81
2022-12-09T16:34:58.401Z,100967.84
2022-12-09T16:37:29.786Z,100966.84
2022-12-09T16:39:57.987Z,100974.34
2022-12-09T16:42:37.856Z,100973.94
2022-12-09T16:45:23.391Z,100976.97
2022-12-09T16:47:54.816Z,100969.34
2022-12-09T16:50:23.660Z,100975.25
2022-12-09T16:52:51.053Z,100976.97
2022-12-09T16:55:20.169Z,100980.66
2022-12-09T16:57:47.540Z,100973.53
2022-12-09T17:00:15.252Z,100966.00
2022-12-09T17:02:45.222Z,100969.38
2022-12-09T17:05:12.702Z,100970.25
2022-12-09T17:07:40.031Z,100963.44
2022-12-09T17:10:08.250Z,100975.41
2022-12-09T17:12:35.656Z,100968.75
2022-12-09T17:15:03.175Z,100969.38
2022-12-09T17:17:30.640Z,100974.16
2022-12-09T17:19:58.071Z,100976.91
2022-12-09T17:22:25.318Z,100972.38
2022-12-09T17:24:52.644Z,100978.25
2022-12-09T17:27:19.944Z,100976.06
2022-12-09T17:29:47.620Z,100978.63
2022-12-09T17:32:15.115Z,100976.91
2022-12-09T17:34:42.846Z,100978.63
2022-12-09T17:37:10.155Z,100985.56
2022-12-09T17:39:37.460Z,100992.88
2022-12-09T17:42:04.869Z,100990.94
2022-12-09T17:44:32.183Z,100991.41
2022-12-09T17:46:59.374Z,100991.41
2022-12-09T17:49:26.849Z,100989.00
2022-12-09T17:51:54.056Z,100981.47
2022-12-09T17:54:21.317Z,100989.00
2022-12-09T17:56:48.690Z,100984.16
2022-12-09T17:59:16.995Z,100981.78
2022-12-09T18:01:46.326Z,100983.22
2022-12-09T18:04:14.624Z,100972.88
2022-12-09T18:06:43.458Z,100973.50
2022-12-09T18:09:12.594Z,100974.16
2022-12-09T18:11:40.190Z,100974.34
2022-12-09T18:14:07.907Z,100981.59
2022-12-09T18:16:35.654Z,100970.28
2022-12-09T18:19:07.001Z,100975.06
2022-12-09T18:21:34.582Z,100967.53
2022-12-09T18:24:02.012Z,100973.75
2022-12-09T18:26:32.919Z,100976.63
2022-12-09T18:29:02.989Z,100978.34
2022-12-09T18:31:30.577Z,100972.19
2022-12-09T18:33:57.914Z,100975.25
2022-12-09T18:36:26.238Z,100974.66
2022-12-09T18:38:54.348Z,100971.91
2022-12-09T18:41:23.039Z,100976.78
2022-12-09T18:43:51.909Z,100978.47
2022-12-09T18:46:30.117Z,100969.00
2022-12-09T18:48:57.676Z,100970.16
2022-12-09T18:51:25.003Z,100972.03
2022-12-09T18:53:52.461Z,100976.91
2022-12-09T18:56:19.733Z,100966.00
2022-12-09T18:59:05.971Z,100978.47
2022-12-09T19:01:35.855Z,100969.69
2022-12-09T19:04:03.866Z,100973.25
2022-12-09T19:06:32.904Z,100967.53
2022-12-09T19:09:02.149Z,100967.78
2022-12-09T19:11:30.862Z,100934.28
2022-12-09T19:13:58.797Z,100972.19
2022-12-09T19:16:26.888Z,100966.50
2022-12-09T19:18:54.488Z,100971.59
2022-12-09T19:21:22.858Z,100961.91
2022-12-09T19:23:50.319Z,100965.94
2022-12-09T19:26:43.635Z,100962.94
2022-12-09T19:33:55.929Z,100973.09
2022-12-09T19:36:24.412Z,100975.75
2022-12-09T19:38:51.983Z,100971.38
2022-12-09T19:41:19.738Z,100975.06
2022-12-09T19:43:47.096Z,100977.81
2022-12-09T19:46:15.327Z,100976.53
2022-12-09T19:48:44.408Z,100975.69
2022-12-09T19:51:12.927Z,100975.88
2022-12-09T19:53:40.487Z,100974.97
2022-12-09T19:56:09.326Z,100985.06
2022-12-09T19:58:37.680Z,100989.41
2022-12-09T20:01:09.494Z,100989.06
2022-12-09T20:03:37.440Z,100987.91
2022-12-09T20:06:06.630Z,100991.75
2022-12-09T20:08:34.325Z,100993.91
2022-12-09T20:11:01.734Z,100985.25
2022-12-09T20:13:31.996Z,100983.13
2022-12-09T20:16:03.153Z,100985.19
2022-12-09T20:18:30.669Z,100983.28
2022-12-09T20:21:00.490Z,100987.91
2022-12-09T20:23:28.156Z,100984.00
2022-12-09T20:25:55.385Z,100993.94
2022-12-09T20:28:22.781Z,100977.72
2022-12-09T20:30:51.439Z,100985.25
2022-12-09T20:33:18.692Z,100985.59
2022-12-09T20:35:45.938Z,100977.75
2022-12-09T20:38:13.365Z,100986.59
2022-12-09T20:40:41.008Z,100988.25
2022-12-09T20:43:08.325Z,100988.06
2022-12-09T20:45:38.877Z,100995.84
2022-12-09T20:48:06.214Z,100996.38
2022-12-09T20:50:38.407Z,100993.28
2022-12-09T20:53:06.412Z,100995.97
2022-12-09T20:55:33.589Z,100999.78
2022-12-09T20:58:00.952Z,100998.59
2022-12-09T21:00:28.220Z,101000.66
2022-12-09T21:02:55.484Z,101005.44
2022-12-09T21:05:22.663Z,101005.19
2022-12-09T21:07:50.127Z,101011.88
2022-12-09T21:10:17.424Z,101014.22
2022-12-09T21:12:44.725Z,101013.53
2022-12-09T21:15:12.678Z,101013.34
2022-12-09T21:17:39.964Z,101019.97
2022-12-09T21:20:07.676Z,101019.34
2022-12-09T21:22:35.487Z,101023.41
2022-12-09T21:25:02.820Z,101022.50
2022-12-09T21:27:30.142Z,101017.69
2022-12-09T21:29:57.443Z,101024.44
2022-12-09T21:32:24.745Z,101026.50
2022-12-09T21:34:51.953Z,101029.78
2022-12-09T21:37:19.231Z,101031.72
2022-12-09T21:39:46.749Z,101025.00
2022-12-09T21:42:13.989Z,101034.47
2022-12-09T21:44:42.364Z,101023.28
2022-12-09T21:47:09.725Z,101025.16
2022-12-09T21:49:37.053Z,101022.44
2022-12-09T21:52:06.880Z,101028.81
2022-12-09T21:54:34.117Z,101026.59
2022-12-09T21:57:01.328Z,101032.16
2022-12-09T21:59:29.777Z,101023.00
2022-12-09T22:01:57.083Z,101021.53
2022-12-09T22:04:24.291Z,101018.19
2022-12-09T22:06:51.548Z,101019.19
2022-12-09T22:09:21.247Z,101021.84
2022-12-09T22:11:48.632Z,101025.69
2022-12-09T22:14:15.908Z,101026.75
2022-12-09T22:16:44.352Z,101022.69
2022-12-09T22:19:16.131Z,101030.94
2022-12-09T22:21:43.491Z,101030.44
2022-12-09T22:24:11.456Z,101022.47
2022-12-09T22:26:40.143Z,101022.03
2022-12-09T22:29:07.914Z,101018.53
2022-12-09T22:31:36.851Z,101032.13
2022-12-09T22:34:06.159Z,101040.75
2022-12-09T22:36:34.653Z,101040.56
2022-12-09T22:39:01.859Z,101044.91
2022-12-09T22:41:30.005Z,101035.94
2022-12-09T22:43:57.368Z,101034.72
2022-12-09T22:46:27.392Z,101036.09
2022-12-09T22:48:56.977Z,101035.97
2022-12-09T22:51:25.277Z,101041.19
2022-12-09T22:53:53.685Z,101037.28
2022-12-09T22:56:21.787Z,101028.66
2022-12-09T22:58:49.340Z,101020.78
2022-12-09T23:01:20.758Z,101032.13
2022-12-09T23:03:48.158Z,101026.13
2022-12-09T23:06:15.376Z,101023.63
2022-12-09T23:08:43.326Z,101024.22
2022-12-09T23:11:12.342Z,101031.34
2022-12-09T23:13:41.389Z,101022.22
2022-12-09T23:16:11.930Z,101021.22
2022-12-09T23:18:39.381Z,101022.47
2022-12-09T23:21:17.591Z,101022.97
2022-12-09T23:23:44.889Z,101023.63
2022-12-09T23:26:16.157Z,101026.31
2022-12-09T23:28:45.298Z,101020.63
2022-12-09T23:31:13.709Z,101019.56
2022-12-09T23:33:41.766Z,101027.63
2022-12-09T23:36:10.817Z,101025.81
2022-12-09T23:38:38.175Z,101028.50
2022-12-09T23:41:05.848Z,101028.97
2022-12-09T23:43:34.404Z,101023.09
2022-12-09T23:46:08.837Z,101025.81
2022-12-09T23:48:40.372Z,101025.19
2022-12-09T23:51:11.811Z,101028.41
2022-12-09T23:53:39.596Z,101029.72
2022-12-09T23:56:07.522Z,101019.84
2022-12-09T23:58:34.846Z,101026.78
